Terminal Aerodrome Forecast
Issued by NWS

Current Version | Previous Version | Graphics & Text | Print | Product List | Glossary On
Versions: 1 2 3 4 5 6 7 8 9 10 11 12 13 14 15 16 17 18 19 20 21 22 23 24 25 26 27 28 29 30 31
000
FTUS41 KILN 201740 AAD
TAFLUK
TAF AMD
KLUK 201740Z 2018/2118 14009KT P6SM VCTS BKN040CB
      TEMPO 2018/2022 2SM -TSRA BR OVC015CB
     FM210600 17006KT 5SM -SHRA VCTS OVC025CB
     FM211500 18010G18KT 4SM SHRA VCTS OVC018CB
     FM211700 21012G18KT P6SM BKN025=

USA.gov is the U.S. government's official web portal to all federal, state and local government web resources and services.